RX9942 YCFS-YBBN
Flight info
| Callsign | RX9942 |
|---|---|
| Flight time | N/A |
| Altitude | 19000 |
| Route | DCT CFS W196 BNA/N0273F200 W196 GOMOL GOMOL4A |
| Aircraft | SF34/M-SDFGR/S |
Departure
| Time | 2026-05-04 06:52 |
|---|---|
| Airport | Coffs Harbour Airport (YCFS) |
Arrival
| Time | N/A |
|---|---|
| Airport | Brisbane International Airport (YBBN) |
| Time | Latitude | Longitude | Altitude | Speed | Heading |
|---|---|---|---|---|---|
| 2026-05-04 06:50 | -30.33723 | 153.10771 | 16 ft | 14 kts | 220° |
| 2026-05-04 06:51 | -30.33779 | 153.10725 | 17 ft | 12 kts | 212° |
| 2026-05-04 06:51 | -30.33814 | 153.10685 | 17 ft | 7 kts | 341° |
| 2026-05-04 06:51 | -30.33804 | 153.10688 | 17 ft | 0 kts | 34° |
| 2026-05-04 06:52 | -30.33800 | 153.10692 | 17 ft | 4 kts | 40° |
| 2026-05-04 06:52 | -30.33630 | 153.10862 | 17 ft | 74 kts | 41° |
| 2026-05-04 06:52 | -30.33037 | 153.11448 | 59 ft | 146 kts | 40° |
| 2026-05-04 06:52 | -30.32166 | 153.12262 | 639 ft | 170 kts | 36° |
| 2026-05-04 06:53 | -30.31143 | 153.12908 | 1700 ft | 164 kts | 14° |
| 2026-05-04 06:53 | -30.30036 | 153.12946 | 2789 ft | 156 kts | 353° |
| 2026-05-04 06:53 | -30.28917 | 153.13020 | 3673 ft | 167 kts | 11° |
| 2026-05-04 06:53 | -30.27763 | 153.13338 | 4589 ft | 174 kts | 13° |
| 2026-05-04 06:54 | -30.26564 | 153.13705 | 5513 ft | 182 kts | 14° |
| 2026-05-04 06:54 | -30.25317 | 153.14081 | 6440 ft | 189 kts | 14° |
| 2026-05-04 06:54 | -30.24026 | 153.14470 | 7370 ft | 195 kts | 14° |
| 2026-05-04 06:54 | -30.22695 | 153.14871 | 8305 ft | 200 kts | 14° |
| 2026-05-04 06:55 | -30.21332 | 153.15282 | 9239 ft | 205 kts | 14° |
| 2026-05-04 06:55 | -30.19931 | 153.15705 | 10181 ft | 209 kts | 14° |
| 2026-05-04 06:55 | -30.18511 | 153.16132 | 11023 ft | 217 kts | 14° |
| 2026-05-04 06:55 | -30.17012 | 153.16585 | 11724 ft | 228 kts | 14° |
| 2026-05-04 06:56 | -30.15450 | 153.17055 | 12427 ft | 236 kts | 14° |